Time;durP1;ratioP1;P1;durP2;ratioP2;P2;SDS_P1;SDS_P2;PMS_P1;PMS_P2;Temp;Humidity;BMP_temperature;BMP_pressure;BME280_temperature;BME280_humidity;BME280_pressure;Samples;Min_cycle;Max_cycle;Signal;HPM_P1;HPM_P2
2021/07/16 00:02:12;;;;;;;0.10;0.10;;;;;;;19.64;93.05;100934.28;5046912;28;20049;-85
2021/07/16 00:04:45;;;;;;;0.10;0.10;;;;;;;19.59;93.16;100932.50;5035280;28;20061;-85
2021/07/16 00:07:18;;;;;;;0.10;0.10;;;;;;;19.51;93.87;100925.06;5036112;28;20049;-84
2021/07/16 00:09:52;;;;;;;0.10;0.10;;;;;;;19.57;92.42;100932.03;5034079;28;20038;-85
2021/07/16 00:12:21;;;;;;;0.10;0.10;;;;;;;19.45;93.84;100924.47;5035145;28;20072;-85
2021/07/16 00:14:55;;;;;;;0.10;0.10;;;;;;;19.45;93.15;100918.94;5035520;28;20046;-86
2021/07/16 00:17:29;;;;;;;0.10;0.10;;;;;;;19.42;94.35;100927.91;5045886;28;20061;-85
2021/07/16 00:20:03;;;;;;;0.10;0.10;;;;;;;19.36;94.57;100926.47;5020263;28;20055;-84
2021/07/16 00:22:37;;;;;;;0.10;0.10;;;;;;;19.33;94.79;100927.13;5032026;28;20413;-84
2021/07/16 00:25:12;;;;;;;0.10;0.10;;;;;;;19.33;93.67;100922.44;5033597;28;20076;-84
2021/07/16 00:27:45;;;;;;;0.10;0.10;;;;;;;19.29;94.29;100921.50;5035778;28;20045;-85
2021/07/16 00:30:20;;;;;;;0.10;0.10;;;;;;;19.26;94.44;100927.66;5032444;28;20049;-85
2021/07/16 00:32:53;;;;;;;0.10;0.10;;;;;;;19.23;94.63;100931.09;5034710;28;20041;-85
2021/07/16 00:35:22;;;;;;;0.10;0.10;;;;;;;19.19;94.39;100919.91;5016066;28;20053;-84
2021/07/16 00:37:56;;;;;;;0.10;0.10;;;;;;;19.16;93.96;100931.59;5016296;28;20056;-85
2021/07/16 00:40:29;;;;;;;0.20;0.20;;;;;;;19.12;94.31;100925.13;5037236;28;20067;-85
2021/07/16 00:43:02;;;;;;;0.10;0.10;;;;;;;19.14;94.35;100944.09;5033882;28;20497;-85
2021/07/16 00:45:32;;;;;;;0.10;0.10;;;;;;;19.10;93.99;100937.63;5037009;28;20079;-85
2021/07/16 00:48:06;;;;;;;0.15;0.15;;;;;;;19.08;94.29;100946.25;5053227;28;20041;-85
2021/07/16 00:50:42;;;;;;;0.10;0.10;;;;;;;18.96;94.27;100941.44;5031616;28;20048;-85
2021/07/16 00:53:14;;;;;;;0.13;0.10;;;;;;;19.03;94.27;100961.03;5027572;28;20049;-85
2021/07/16 00:55:48;;;;;;;0.10;0.10;;;;;;;19.03;93.73;100963.00;5049637;28;20045;-86
2021/07/16 00:58:21;;;;;;;0.20;0.20;;;;;;;18.95;94.44;100961.88;5037913;28;20056;-85
2021/07/16 01:00:57;;;;;;;0.05;0.05;;;;;;;18.92;94.49;100948.75;5044204;28;20060;-85
2021/07/16 01:03:30;;;;;;;0.20;0.20;;;;;;;18.95;93.90;100961.88;5021516;28;20049;-85
2021/07/16 01:06:01;;;;;;;0.10;0.10;;;;;;;19.00;93.33;100956.19;5032048;28;20064;-85
2021/07/16 01:08:41;;;;;;;0.10;0.10;;;;;;;19.00;92.97;100958.13;5048832;28;20072;-85
2021/07/16 01:11:15;;;;;;;0.10;0.10;;;;;;;18.97;93.22;100956.03;5042579;28;20652;-85
2021/07/16 01:13:48;;;;;;;0.10;0.10;;;;;;;18.95;93.07;100961.09;5042438;28;20045;-85
2021/07/16 01:16:23;;;;;;;0.10;0.10;;;;;;;18.84;93.95;100961.38;5032239;28;20053;-85
2021/07/16 01:18:56;;;;;;;0.10;0.10;;;;;;;18.88;93.33;100963.50;5022272;28;20500;-85
2021/07/16 01:21:34;;;;;;;0.10;0.10;;;;;;;18.70;94.04;100960.78;5025236;28;20057;-85
2021/07/16 01:24:06;;;;;;;0.10;0.10;;;;;;;18.72;94.02;100965.97;5045781;28;20041;-84
2021/07/16 01:26:42;;;;;;;0.10;0.10;;;;;;;18.68;94.06;100958.38;5032624;28;20604;-84
2021/07/16 01:29:15;;;;;;;0.17;0.17;;;;;;;18.64;94.21;100960.16;5044296;28;20045;-85
2021/07/16 01:31:49;;;;;;;0.20;0.20;;;;;;;18.65;94.19;100955.44;5025385;28;20056;-84
2021/07/16 01:34:22;;;;;;;0.15;0.15;;;;;;;18.62;93.90;100953.34;5043495;28;20658;-85
2021/07/16 01:36:51;;;;;;;0.20;0.20;;;;;;;18.54;94.01;100941.19;5029123;28;20060;-85
2021/07/16 01:39:25;;;;;;;0.20;0.20;;;;;;;18.50;94.38;100940.25;5049071;28;20045;-85
2021/07/16 01:41:54;;;;;;;0.10;0.10;;;;;;;18.46;94.13;100942.84;5045469;28;20067;-85
2021/07/16 01:44:27;;;;;;;0.10;0.10;;;;;;;18.49;93.80;100936.69;5031303;28;20045;-85
2021/07/16 01:47:00;;;;;;;0.20;0.20;;;;;;;18.42;94.13;100941.06;5051007;28;20049;-85
2021/07/16 01:49:34;;;;;;;0.10;0.10;;;;;;;18.29;94.27;100932.66;5027889;28;20067;-85
2021/07/16 01:52:08;;;;;;;0.20;0.20;;;;;;;18.33;94.33;100943.84;5045619;28;20054;-85
2021/07/16 01:54:42;;;;;;;0.10;0.10;;;;;;;18.30;93.94;100947.25;5032117;28;20056;-85
2021/07/16 01:57:16;;;;;;;0.13;0.13;;;;;;;18.25;94.29;100950.97;5047901;28;20045;-85
2021/07/16 01:59:44;;;;;;;0.20;0.20;;;;;;;18.21;94.27;100960.22;5029339;28;20053;-85
2021/07/16 02:02:17;;;;;;;0.10;0.10;;;;;;;18.18;94.16;100953.41;5041979;28;20054;-85
2021/07/16 02:04:51;;;;;;;0.10;0.10;;;;;;;18.12;93.81;100954.72;5053217;28;20057;-85
2021/07/16 02:07:50;;;;;;;0.10;0.10;;;;;;;18.12;94.03;100977.56;5027591;28;20058;-85
2021/07/16 02:10:25;;;;;;;0.15;0.15;;;;;;;17.97;94.31;100956.00;5040681;28;20041;-85
2021/07/16 02:12:59;;;;;;;0.10;0.10;;;;;;;17.99;94.22;100981.25;5041055;28;20044;-85
2021/07/16 02:15:36;;;;;;;0.10;0.10;;;;;;;17.97;94.02;100980.78;5028413;28;20052;-85
2021/07/16 02:18:09;;;;;;;0.10;0.10;;;;;;;18.01;93.88;100985.31;5045288;28;20485;-85
2021/07/16 02:20:39;;;;;;;0.10;0.10;;;;;;;17.98;94.40;100976.88;5039260;28;20300;-85
2021/07/16 02:23:15;;;;;;;0.17;0.17;;;;;;;17.92;93.89;100978.97;5041977;28;20049;-85
2021/07/16 02:25:50;;;;;;;0.20;0.20;;;;;;;17.80;94.39;100979.59;5034368;28;20394;-85
2021/07/16 02:28:26;;;;;;;0.20;0.20;;;;;;;17.79;94.18;100974.44;5040118;28;20047;-86
2021/07/16 02:31:01;;;;;;;0.10;0.10;;;;;;;17.88;93.73;100989.00;5048360;28;20041;-86
2021/07/16 02:33:35;;;;;;;0.20;0.20;;;;;;;17.83;94.08;100983.66;5044367;28;20311;-85
2021/07/16 02:36:10;;;;;;;0.10;0.10;;;;;;;17.78;93.41;100981.84;5031319;28;20478;-85
2021/07/16 02:38:43;;;;;;;0.20;0.20;;;;;;;17.73;93.85;100992.22;5026609;28;20045;-86
2021/07/16 02:41:18;;;;;;;0.10;0.10;;;;;;;17.75;94.12;101001.78;5050833;28;20397;-85
2021/07/16 02:43:52;;;;;;;0.10;0.10;;;;;;;17.78;93.54;101003.06;5030488;28;20057;-85
2021/07/16 02:46:26;;;;;;;0.20;0.20;;;;;;;17.75;93.55;100998.22;5046252;28;20064;-85
2021/07/16 02:48:59;;;;;;;0.13;0.13;;;;;;;17.67;94.21;100994.31;5032965;28;20052;-84
2021/07/16 02:51:36;;;;;;;0.10;0.10;;;;;;;17.69;93.68;101005.81;5050895;28;20041;-86
2021/07/16 02:54:12;;;;;;;0.20;0.20;;;;;;;17.80;93.39;101012.63;5051669;28;20045;-85
2021/07/16 02:56:44;;;;;;;0.10;0.10;;;;;;;17.71;93.26;101011.00;5030354;28;20045;-85
2021/07/16 02:59:18;;;;;;;0.20;0.20;;;;;;;17.56;93.79;101004.00;5046509;28;20040;-85
2021/07/16 03:01:55;;;;;;;0.10;0.10;;;;;;;17.61;93.35;101006.59;5048236;28;20088;-85
2021/07/16 03:04:23;;;;;;;0.10;0.10;;;;;;;17.56;93.76;101017.75;5049060;28;20071;-85
2021/07/16 03:06:57;;;;;;;0.10;0.10;;;;;;;17.53;93.64;101016.44;5043603;28;21580;-85
2021/07/16 03:09:34;;;;;;;0.10;0.10;;;;;;;17.53;93.49;101005.44;5051427;28;20045;-84
2021/07/16 03:12:08;;;;;;;;;;;;;;;17.55;93.40;101025.19;5033391;28;20048;-85
2021/07/16 03:14:42;;;;;;;0.10;0.10;;;;;;;17.59;93.21;101025.38;5050529;28;20336;-85
2021/07/16 03:17:15;;;;;;;0.10;0.10;;;;;;;17.53;93.09;101023.91;5047496;28;20045;-85
2021/07/16 03:19:48;;;;;;;0.10;0.10;;;;;;;17.47;93.31;101028.75;5052306;28;20508;-86
2021/07/16 03:22:22;;;;;;;0.10;0.10;;;;;;;17.50;93.09;101034.41;5052885;28;20056;-86
2021/07/16 03:24:56;;;;;;;0.20;0.20;;;;;;;17.51;92.74;101041.53;5039490;28;20049;-85
2021/07/16 03:27:30;;;;;;;0.13;0.13;;;;;;;17.40;93.44;101042.94;5049764;28;20045;-85
2021/07/16 03:30:08;;;;;;;0.10;0.10;;;;;;;17.38;93.19;101036.94;5053955;28;20049;-85
2021/07/16 03:32:42;;;;;;;0.20;0.20;;;;;;;17.37;93.37;101040.81;5038555;28;20490;-86
2021/07/16 03:35:12;;;;;;;0.20;0.20;;;;;;;17.30;93.76;101041.28;5045651;28;20068;-85
2021/07/16 03:37:45;;;;;;;0.10;0.10;;;;;;;17.37;93.60;101048.25;5053834;28;20385;-85
2021/07/16 03:40:16;;;;;;;0.20;0.20;;;;;;;17.28;93.33;101049.03;5022314;28;20061;-85
2021/07/16 03:42:52;;;;;;;0.20;0.20;;;;;;;17.30;93.69;101052.31;5053745;28;20040;-85
2021/07/16 03:45:20;;;;;;;0.20;0.20;;;;;;;17.27;93.22;101050.16;5049673;28;20069;-86
2021/07/16 03:47:53;;;;;;;0.20;0.20;;;;;;;17.30;93.56;101049.56;5033427;28;20063;-85
2021/07/16 03:50:27;;;;;;;0.20;0.20;;;;;;;17.31;93.62;101050.34;5053908;28;20049;-85
2021/07/16 03:53:03;;;;;;;0.20;0.20;;;;;;;17.30;93.56;101056.97;5048890;28;20045;-86
2021/07/16 03:55:40;;;;;;;0.10;0.10;;;;;;;17.22;93.89;101046.72;5021716;28;20064;-89
2021/07/16 03:58:10;;;;;;;0.10;0.10;;;;;;;17.28;93.72;101059.25;5029909;28;20486;-86
2021/07/16 04:00:43;;;;;;;0.10;0.10;;;;;;;17.26;93.80;101053.22;5036747;28;20053;-85
2021/07/16 04:03:17;;;;;;;0.10;0.10;;;;;;;17.30;93.65;101057.81;5050939;28;20048;-88
2021/07/16 04:05:50;;;;;;;0.20;0.20;;;;;;;17.33;93.11;101059.06;5049654;28;20041;-86
2021/07/16 04:08:19;;;;;;;0.10;0.10;;;;;;;17.34;93.23;101049.72;5028847;28;20052;-85
2021/07/16 04:10:53;;;;;;;0.13;0.13;;;;;;;17.38;93.67;101052.66;5034341;28;20515;-85
2021/07/16 04:13:29;;;;;;;0.10;0.10;;;;;;;17.33;93.21;101057.16;5047459;28;20045;-85
2021/07/16 04:16:03;;;;;;;0.10;0.10;;;;;;;17.36;93.42;101063.97;5046293;28;20052;-85
2021/07/16 04:18:36;;;;;;;0.10;0.10;;;;;;;17.43;93.10;101069.03;5053274;28;20041;-85
2021/07/16 04:21:04;;;;;;;0.13;0.13;;;;;;;17.45;93.14;101062.06;5035100;28;20057;-85
2021/07/16 04:23:33;;;;;;;0.10;0.10;;;;;;;17.41;93.38;101063.00;5034004;28;20786;-85
2021/07/16 04:26:03;;;;;;;0.10;0.10;;;;;;;17.45;93.01;101072.25;5030361;28;20061;-86
2021/07/16 04:28:37;;;;;;;0.17;0.17;;;;;;;17.49;92.90;101074.03;5030320;28;20052;-85
2021/07/16 04:31:11;;;;;;;0.10;0.10;;;;;;;17.58;92.54;101070.50;5051227;28;20040;-84
2021/07/16 04:33:39;;;;;;;0.10;0.10;;;;;;;17.55;93.12;101065.66;5047989;28;20041;-85
2021/07/16 04:36:12;;;;;;;0.20;0.20;;;;;;;17.57;93.19;101071.66;5043677;28;20049;-85
2021/07/16 04:38:45;;;;;;;0.20;0.20;;;;;;;17.56;93.63;101065.34;5040412;28;20057;-85
2021/07/16 04:41:19;;;;;;;0.10;0.10;;;;;;;17.59;92.76;101066.66;5029139;28;20064;-85
2021/07/16 04:43:56;;;;;;;0.10;0.10;;;;;;;17.55;92.97;101065.66;5027251;28;20422;-86
2021/07/16 04:46:30;;;;;;;0.57;0.20;;;;;;;17.59;91.89;101064.69;5041850;28;20052;-85
2021/07/16 04:48:58;;;;;;;0.10;0.10;;;;;;;17.67;92.51;101071.38;5043037;28;20049;-85
2021/07/16 04:51:33;;;;;;;0.13;0.13;;;;;;;17.55;92.38;101068.41;5033416;28;20068;-85
2021/07/16 04:54:12;;;;;;;0.13;0.13;;;;;;;17.61;92.28;101080.91;5034192;28;20060;-85
2021/07/16 04:56:51;;;;;;;0.10;0.10;;;;;;;17.75;92.11;101080.81;5049235;28;20044;-84
2021/07/16 04:59:26;;;;;;;0.10;0.10;;;;;;;17.77;91.63;101065.59;5039960;28;20409;-84
2021/07/16 05:02:00;;;;;;;0.20;0.20;;;;;;;17.72;91.70;101051.97;5026074;28;20146;-85
2021/07/16 05:04:34;;;;;;;0.13;0.13;;;;;;;17.80;91.84;101059.44;5026147;28;20058;-84
2021/07/16 05:07:11;;;;;;;0.20;0.20;;;;;;;17.84;91.36;101073.34;5048412;28;20053;-86
2021/07/16 05:09:46;;;;;;;0.10;0.10;;;;;;;18.08;90.42;101072.97;5052316;28;20041;-85
2021/07/16 05:12:16;;;;;;;0.10;0.10;;;;;;;18.20;89.86;101069.56;5046314;28;20036;-85
2021/07/16 05:14:51;;;;;;;0.20;0.20;;;;;;;18.45;89.54;101075.44;5029999;28;20048;-85
2021/07/16 05:17:28;;;;;;;0.20;0.20;;;;;;;19.27;86.31;101077.47;5030617;28;20044;-85
2021/07/16 05:20:02;;;;;;;0.20;0.20;;;;;;;20.14;82.45;101073.50;5026602;28;20306;-84
2021/07/16 05:22:32;;;;;;;0.20;0.20;;;;;;;20.34;81.17;101080.19;5032835;28;20509;-85
2021/07/16 05:25:07;;;;;;;0.20;0.20;;;;;;;20.92;78.95;101076.78;5036447;28;20055;-86
2021/07/16 05:27:41;;;;;;;0.20;0.20;;;;;;;21.55;75.58;101077.41;5033328;28;20409;-86
2021/07/16 05:30:17;;;;;;;0.20;0.20;;;;;;;21.31;76.75;101075.41;5049823;28;20047;-85
2021/07/16 05:32:52;;;;;;;0.10;0.10;;;;;;;21.60;75.68;101075.56;5021759;28;20046;-86
2021/07/16 05:35:26;;;;;;;0.10;0.10;;;;;;;22.02;74.02;101078.09;5033143;28;20435;-85
2021/07/16 05:37:54;;;;;;;0.10;0.10;;;;;;;22.69;72.44;101074.94;5034570;28;20686;-84
2021/07/16 05:40:29;;;;;;;0.15;0.15;;;;;;;22.87;72.32;101076.25;5043349;28;20047;-85
2021/07/16 05:43:05;;;;;;;0.10;0.10;;;;;;;22.89;70.49;101082.22;5034288;28;20383;-84
2021/07/16 05:45:42;;;;;;;0.10;0.10;;;;;;;22.58;70.59;101083.75;5021797;28;20056;-85
2021/07/16 05:48:11;;;;;;;0.10;0.10;;;;;;;21.87;74.83;101087.91;5044620;28;20052;-84
2021/07/16 05:50:47;;;;;;;0.10;0.10;;;;;;;21.64;76.38;101098.63;5030404;28;20699;-85
2021/07/16 05:53:20;;;;;;;0.10;0.10;;;;;;;21.04;77.14;101096.19;5020997;28;20041;-84
2021/07/16 05:55:54;;;;;;;0.10;0.10;;;;;;;20.91;77.55;101100.91;5033749;28;20059;-84
2021/07/16 05:58:27;;;;;;;0.10;0.10;;;;;;;20.60;78.80;101104.06;5032975;28;20397;-87
2021/07/16 06:01:05;;;;;;;0.10;0.10;;;;;;;20.70;80.36;101117.50;5016160;28;20053;-84
2021/07/16 06:03:38;;;;;;;0.15;0.15;;;;;;;20.60;78.51;101120.66;5038169;28;20366;-86
2021/07/16 06:06:11;;;;;;;0.10;0.10;;;;;;;20.33;80.29;101111.75;5030896;28;20405;-85
2021/07/16 06:08:45;;;;;;;0.10;0.10;;;;;;;20.25;80.91;101118.94;5037781;28;20057;-87
2021/07/16 06:11:18;;;;;;;0.10;0.10;;;;;;;19.99;81.03;101117.13;5042840;28;20045;-84
2021/07/16 06:13:51;;;;;;;0.10;0.10;;;;;;;19.91;83.54;101120.75;5045476;28;20037;-86
2021/07/16 06:16:26;;;;;;;0.10;0.10;;;;;;;19.90;82.82;101110.88;5022142;28;20056;-86
2021/07/16 06:19:01;;;;;;;0.10;0.10;;;;;;;20.17;81.42;101119.81;5047098;28;20466;-86
2021/07/16 06:21:34;;;;;;;0.10;0.10;;;;;;;20.49;82.92;101118.28;5045215;28;20041;-85
2021/07/16 06:24:07;;;;;;;0.15;0.15;;;;;;;20.27;83.03;101126.91;5035372;28;20045;-85
2021/07/16 06:26:41;;;;;;;0.10;0.10;;;;;;;20.17;82.43;101137.19;5037949;28;20041;-88
2021/07/16 06:29:14;;;;;;;0.10;0.10;;;;;;;20.17;80.55;101128.91;5031913;28;20511;-85
2021/07/16 06:31:49;;;;;;;0.10;0.10;;;;;;;20.37;81.20;101129.28;5044059;28;20041;-86
2021/07/16 06:34:22;;;;;;;0.10;0.10;;;;;;;20.48;81.18;101137.97;5047476;28;20700;-85
2021/07/16 06:36:55;;;;;;;0.10;0.10;;;;;;;20.27;80.71;101122.16;5028327;28;20049;-86
2021/07/16 06:39:31;;;;;;;0.10;0.10;;;;;;;20.48;80.85;101124.97;5045715;28;20060;-85
2021/07/16 06:42:07;;;;;;;0.10;0.10;;;;;;;20.46;80.80;101132.78;5053943;28;20067;-86
2021/07/16 06:44:40;;;;;;;0.15;0.15;;;;;;;20.46;80.82;101131.97;5048189;28;20041;-86
2021/07/16 06:47:14;;;;;;;0.10;0.10;;;;;;;20.21;81.48;101131.81;5051312;28;20045;-84
2021/07/16 06:49:48;;;;;;;0.10;0.10;;;;;;;20.17;83.01;101141.91;5055149;28;20473;-86
2021/07/16 06:52:16;;;;;;;0.20;0.20;;;;;;;20.26;83.16;101139.91;5034689;28;20068;-86
2021/07/16 06:54:51;;;;;;;0.10;0.10;;;;;;;20.08;82.98;101144.75;5033547;28;20050;-85
2021/07/16 06:57:26;;;;;;;0.10;0.10;;;;;;;20.24;82.09;101160.75;5036156;28;20057;-85
2021/07/16 07:00:02;;;;;;;0.10;0.10;;;;;;;20.27;82.17;101147.03;5051926;28;20055;-86
2021/07/16 07:02:38;;;;;;;0.10;0.10;;;;;;;20.41;82.85;101162.56;5032483;28;20409;-86
2021/07/16 07:05:11;;;;;;;0.10;0.10;;;;;;;20.71;81.48;101160.59;5048391;28;20037;-85
2021/07/16 07:07:49;;;;;;;0.68;0.10;;;;;;;20.58;81.07;101162.47;5028751;28;20053;-86
2021/07/16 07:10:23;;;;;;;0.15;0.15;;;;;;;20.55;81.22;101158.41;5036730;28;21370;-86
2021/07/16 07:13:04;;;;;;;0.10;0.10;;;;;;;20.55;83.31;101158.41;5033430;28;20119;-85
2021/07/16 07:15:38;;;;;;;0.20;0.20;;;;;;;20.63;81.53;101162.28;5046656;28;20064;-86
2021/07/16 07:18:12;;;;;;;0.10;0.10;;;;;;;20.71;84.27;101169.72;5048561;28;20056;-85
2021/07/16 07:20:53;;;;;;;0.20;0.20;;;;;;;20.97;82.93;101168.69;5056911;28;20040;-86
2021/07/16 07:23:29;;;;;;;0.10;0.10;;;;;;;21.00;82.43;101175.50;5052813;28;20072;-86
2021/07/16 07:26:08;;;;;;;0.10;0.10;;;;;;;20.79;80.03;101172.75;5053187;28;20049;-86
2021/07/16 07:28:38;;;;;;;0.17;0.17;;;;;;;20.75;80.48;101169.84;5034050;28;20052;-86
2021/07/16 07:31:07;;;;;;;0.10;0.10;;;;;;;20.77;80.77;101175.88;5044554;28;20052;-85
2021/07/16 07:33:37;;;;;;;0.10;0.10;;;;;;;20.81;83.31;101174.03;5047548;28;21525;-85
2021/07/16 07:36:10;;;;;;;0.10;0.10;;;;;;;20.89;80.51;101184.22;5032744;28;20057;-85
2021/07/16 07:38:44;;;;;;;0.10;0.10;;;;;;;20.99;80.60;101191.31;5050606;28;20060;-85
2021/07/16 07:41:17;;;;;;;0.10;0.10;;;;;;;21.01;80.26;101189.00;5033060;28;20065;-85
2021/07/16 07:43:53;;;;;;;0.10;0.10;;;;;;;20.50;80.39;101197.31;5050991;28;20044;-84
2021/07/16 07:46:27;;;;;;;0.20;0.20;;;;;;;20.47;81.66;101198.00;5055440;28;20048;-84
2021/07/16 07:49:03;;;;;;;0.10;0.10;;;;;;;20.41;83.35;101201.28;5046681;28;20686;-84
2021/07/16 07:51:37;;;;;;;0.10;0.10;;;;;;;20.47;84.06;101208.25;5046473;28;20046;-85
2021/07/16 07:54:11;;;;;;;0.10;0.10;;;;;;;20.79;83.57;101209.50;5047695;28;20036;-85
2021/07/16 07:56:45;;;;;;;0.10;0.10;;;;;;;20.62;80.96;101206.81;5028818;28;20059;-85
2021/07/16 07:59:14;;;;;;;0.10;0.10;;;;;;;20.99;82.50;101212.63;5043961;28;20049;-86
2021/07/16 08:01:48;;;;;;;0.10;0.10;;;;;;;20.99;82.27;101207.06;5044789;28;20044;-85
2021/07/16 08:04:24;;;;;;;0.10;0.10;;;;;;;21.08;80.12;101212.56;5028527;28;20396;-86
2021/07/16 08:06:57;;;;;;;0.10;0.10;;;;;;;21.03;81.36;101208.03;5009744;28;21466;-86
2021/07/16 08:09:30;;;;;;;0.13;0.13;;;;;;;20.99;81.81;101201.53;5027370;28;20147;-86
2021/07/16 08:12:02;;;;;;;0.10;0.10;;;;;;;21.12;79.61;101214.31;5041720;28;20477;-86
2021/07/16 08:14:32;;;;;;;0.10;0.10;;;;;;;21.26;82.16;101211.25;5031569;28;20057;-86
2021/07/16 08:17:09;;;;;;;0.10;0.10;;;;;;;21.37;79.85;101206.09;5044409;28;20643;-86
2021/07/16 08:19:45;;;;;;;0.10;0.10;;;;;;;21.37;79.14;101203.31;5046203;28;20055;-86
2021/07/16 08:22:13;;;;;;;0.10;0.10;;;;;;;21.46;78.98;101204.06;5023583;28;20485;-84
2021/07/16 08:24:48;;;;;;;0.40;0.17;;;;;;;21.35;78.33;101202.84;5044500;28;20143;-85
2021/07/16 08:27:16;;;;;;;0.10;0.10;;;;;;;21.37;82.36;101208.88;5044333;28;20067;-84
2021/07/16 08:29:52;;;;;;;0.10;0.10;;;;;;;21.43;79.37;101224.09;5030076;28;20052;-88
2021/07/16 08:32:26;;;;;;;0.10;0.10;;;;;;;21.66;79.01;101221.78;5022207;28;20808;-85
2021/07/16 08:35:01;;;;;;;0.10;0.10;;;;;;;21.51;78.68;101219.63;5047349;28;20056;-84
2021/07/16 08:37:35;;;;;;;0.10;0.10;;;;;;;21.81;78.47;101219.53;5025290;28;20505;-85
2021/07/16 08:40:11;;;;;;;0.10;0.10;;;;;;;21.67;78.82;101217.06;5045567;28;20049;-85
2021/07/16 08:42:48;;;;;;;0.10;0.10;;;;;;;21.61;78.54;101218.44;5044433;28;20494;-85
2021/07/16 08:45:22;;;;;;;0.15;0.15;;;;;;;21.64;78.39;101221.34;5022143;28;20068;-86
2021/07/16 08:47:56;;;;;;;0.10;0.10;;;;;;;21.61;79.29;101221.19;5044053;28;20060;-84
2021/07/16 08:50:33;;;;;;;0.10;0.10;;;;;;;21.61;78.72;101229.50;5043371;28;20057;-84
2021/07/16 08:53:07;;;;;;;;;;;;;;;21.85;79.64;101229.56;5041957;28;20052;-84
2021/07/16 08:55:42;;;;;;;0.10;0.10;;;;;;;22.51;78.42;101236.09;5042153;28;19928;-84
2021/07/16 08:58:15;;;;;;;0.10;0.10;;;;;;;22.29;79.09;101223.50;5046081;28;20824;-84
2021/07/16 09:00:43;;;;;;;0.10;0.10;;;;;;;22.06;76.49;101221.16;5027496;28;20056;-85
2021/07/16 09:03:19;;;;;;;0.10;0.10;;;;;;;22.05;77.65;101222.31;5021123;28;20049;-85
2021/07/16 09:05:55;;;;;;;0.10;0.10;;;;;;;22.19;77.05;101227.53;5023574;28;20671;-84
2021/07/16 09:08:24;;;;;;;0.17;0.17;;;;;;;22.26;78.87;101232.47;5021622;28;20056;-84
2021/07/16 09:11:00;;;;;;;0.15;0.15;;;;;;;22.27;77.82;101236.06;5043773;28;20508;-84
2021/07/16 09:13:34;;;;;;;0.17;0.17;;;;;;;22.34;78.06;101244.66;5046947;28;20056;-85
2021/07/16 09:16:05;;;;;;;0.10;0.10;;;;;;;22.09;76.52;101241.84;5041483;28;20048;-86
2021/07/16 09:18:38;;;;;;;0.10;0.10;;;;;;;22.14;78.10;101232.47;5021723;28;20063;-85
2021/07/16 09:21:13;;;;;;;0.10;0.10;;;;;;;22.33;77.03;101241.03;5044986;28;20059;-85
2021/07/16 09:23:47;;;;;;;0.10;0.10;;;;;;;22.48;77.44;101235.97;5018371;28;20596;-84
2021/07/16 09:26:25;;;;;;;0.10;0.10;;;;;;;22.73;78.98;101239.53;5041343;28;20049;-85
2021/07/16 09:28:58;;;;;;;0.20;0.20;;;;;;;22.88;78.20;101229.66;5024840;28;20063;-85
2021/07/16 09:31:37;;;;;;;0.10;0.10;;;;;;;22.87;77.01;101225.25;5045305;28;20052;-84
2021/07/16 09:34:14;;;;;;;0.10;0.10;;;;;;;23.07;79.26;101240.94;5041636;28;20040;-85
2021/07/16 09:36:44;;;;;;;0.10;0.10;;;;;;;22.92;74.55;101228.63;5028650;28;20049;-83
2021/07/16 09:39:20;;;;;;;0.15;0.15;;;;;;;22.78;76.65;101233.75;5039529;28;20076;-83
2021/07/16 09:41:55;;;;;;;0.10;0.10;;;;;;;22.92;75.50;101230.59;5019500;28;20417;-85
2021/07/16 09:44:33;;;;;;;0.10;0.10;;;;;;;22.86;75.21;101232.78;5043609;28;20055;-84
2021/07/16 09:47:13;;;;;;;0.10;0.10;;;;;;;22.71;74.65;101231.53;5021952;28;20052;-84
2021/07/16 09:49:49;;;;;;;0.10;0.10;;;;;;;22.74;76.76;101247.53;5038958;28;20048;-84
2021/07/16 09:52:23;;;;;;;0.10;0.10;;;;;;;22.80;76.81;101248.09;5022869;28;20525;-84
2021/07/16 09:55:10;;;;;;;0.17;0.17;;;;;;;22.69;75.26;101239.44;5022892;28;20095;-84
2021/07/16 09:57:46;;;;;;;0.10;0.10;;;;;;;23.23;76.99;101227.16;5042750;28;20056;-84
2021/07/16 10:00:20;;;;;;;;;;;;;;;23.47;76.80;101242.09;5044927;28;20056;-84
2021/07/16 10:02:57;;;;;;;0.17;0.17;;;;;;;23.52;77.17;101241.03;5047841;28;19939;-85
2021/07/16 10:05:36;;;;;;;0.10;0.10;;;;;;;23.54;75.70;101241.50;5021622;28;20067;-84
2021/07/16 10:08:08;;;;;;;0.10;0.10;;;;;;;23.63;74.97;101236.59;5023227;28;20072;-83
2021/07/16 10:10:43;;;;;;;0.10;0.10;;;;;;;23.92;72.42;101234.59;5045148;28;20046;-84
2021/07/16 10:13:13;;;;;;;0.10;0.10;;;;;;;23.80;71.33;101234.63;5047452;28;20526;-85
2021/07/16 10:15:42;;;;;;;0.20;0.20;;;;;;;23.84;71.73;101235.53;5039533;28;20052;-83
2021/07/16 10:18:16;;;;;;;0.13;0.13;;;;;;;23.80;76.10;101234.63;5040367;28;20375;-83
2021/07/16 10:20:44;;;;;;;0.20;0.20;;;;;;;23.84;73.60;101225.22;5021844;28;20058;-85
2021/07/16 10:23:19;;;;;;;0.10;0.10;;;;;;;23.60;74.94;101237.28;5042751;28;20041;-84
2021/07/16 10:26:03;;;;;;;0.10;0.10;;;;;;;23.40;76.60;101233.56;5042393;28;20056;-84
2021/07/16 10:28:35;;;;;;;0.10;0.10;;;;;;;23.57;72.08;101233.25;5022118;28;20057;-84
2021/07/16 10:31:37;;;;;;;0.10;0.10;;;;;;;23.38;73.00;101250.59;5022380;28;20065;-83
2021/07/16 10:34:34;;;;;;;0.10;0.10;;;;;;;23.56;72.54;101250.25;5042303;28;20068;-85
2021/07/16 10:37:09;;;;;;;0.10;0.10;;;;;;;23.51;75.10;101247.75;5024063;28;20068;-87
2021/07/16 10:39:51;;;;;;;0.10;0.10;;;;;;;23.38;77.41;101245.03;5030199;28;20056;-83
2021/07/16 10:42:45;;;;;;;0.10;0.10;;;;;;;23.42;73.71;101245.94;5045987;28;20057;-84
2021/07/16 10:45:32;;;;;;;0.10;0.10;;;;;;;23.51;73.51;101245.78;5023627;28;20061;-84
2021/07/16 10:48:14;;;;;;;0.10;0.10;;;;;;;23.46;76.29;101243.25;5039990;28;20306;-84
2021/07/16 10:50:49;;;;;;;0.10;0.10;;;;;;;24.12;73.37;101260.50;5034209;28;20052;-85
2021/07/16 10:53:40;;;;;;;0.10;0.10;;;;;;;24.38;69.86;101253.59;5032085;28;20067;-87
2021/07/16 10:56:18;;;;;;;0.10;0.10;;;;;;;24.34;72.70;101266.59;5015073;28;20049;-86
2021/07/16 10:58:52;;;;;;;0.10;0.10;;;;;;;24.51;73.32;101257.06;5037657;28;20448;-86
2021/07/16 11:01:33;;;;;;;0.10;0.10;;;;;;;24.28;71.52;101261.31;5039859;28;20053;-87
2021/07/16 11:04:04;;;;;;;0.10;0.10;;;;;;;24.31;71.29;101256.19;5041888;28;20056;-87
2021/07/16 11:06:51;;;;;;;0.10;0.10;;;;;;;24.36;72.18;101267.84;5031186;28;20053;-87
2021/07/16 11:09:37;;;;;;;0.10;0.10;;;;;;;24.14;71.73;101268.47;5018655;28;20071;-86
2021/07/16 11:12:33;;;;;;;0.10;0.10;;;;;;;24.21;74.07;101263.91;5020813;28;20091;-85
2021/07/16 11:15:08;;;;;;;0.10;0.10;;;;;;;24.34;72.20;101259.06;5035752;28;20053;-85
2021/07/16 11:17:42;;;;;;;0.10;0.10;;;;;;;24.34;74.72;101264.63;5018201;28;20060;-86
2021/07/16 11:20:20;;;;;;;0.10;0.10;;;;;;;24.69;71.33;101265.84;5040740;28;20073;-86
2021/07/16 11:23:00;;;;;;;0.10;0.10;;;;;;;24.79;69.18;101257.75;5039601;28;20056;-86
2021/07/16 11:25:35;;;;;;;0.20;0.20;;;;;;;24.70;70.21;101257.13;5043981;28;20048;-85
2021/07/16 11:28:10;;;;;;;0.10;0.10;;;;;;;24.74;69.68;101262.78;5017823;28;20741;-86
2021/07/16 11:30:45;;;;;;;0.20;0.10;;;;;;;24.59;70.57;101251.28;5038025;28;20044;-86
2021/07/16 11:33:20;;;;;;;0.10;0.10;;;;;;;24.71;73.05;101267.09;5019887;28;20068;-86
2021/07/16 11:35:59;;;;;;;0.10;0.10;;;;;;;24.36;71.81;101264.25;5023194;28;20056;-86
2021/07/16 11:38:32;;;;;;;0.15;0.15;;;;;;;24.42;71.90;101273.94;5018633;28;20052;-85
2021/07/16 11:41:10;;;;;;;0.10;0.10;;;;;;;24.40;72.87;101276.28;5042087;28;20060;-85
2021/07/16 11:43:50;;;;;;;0.10;0.10;;;;;;;24.73;71.87;101270.31;5023274;28;20060;-85
2021/07/16 11:46:29;;;;;;;0.20;0.20;;;;;;;24.70;70.05;101279.41;5036568;28;20646;-85
2021/07/16 11:48:59;;;;;;;0.10;0.10;;;;;;;24.92;71.05;101277.09;5015165;28;20056;-85
2021/07/16 11:51:32;;;;;;;0.10;0.10;;;;;;;24.88;71.75;101271.44;5036279;28;20535;-85
2021/07/16 11:54:24;;;;;;;0.10;0.10;;;;;;;24.77;71.57;101282.34;5022110;28;20076;-86
2021/07/16 11:56:58;;;;;;;0.10;0.10;;;;;;;25.03;71.54;101280.13;5041399;28;21039;-85
2021/07/16 11:59:34;;;;;;;0.10;0.10;;;;;;;24.93;73.39;101271.16;5020229;28;20687;-86
2021/07/16 12:02:10;;;;;;;0.10;0.10;;;;;;;24.95;74.45;101279.16;5041974;28;20044;-86